CST,Max TemperatureF,Mean TemperatureF,Min TemperatureF,Max Dew PointF,MeanDew PointF,Min DewpointF,Max Humidity, Mean Humidity, Min Humidity, Max Sea Level PressureIn, Mean Sea Level PressureIn, Min Sea Level PressureIn, Max VisibilityMiles, Mean VisibilityMiles, Min VisibilityMiles, Max Wind SpeedMPH, Mean Wind SpeedMPH, Max Gust SpeedMPH,PrecipitationIn, CloudCover, Events, WindDirDegrees
2014-2-1,60,48,36,48,39,33,93,70,46,30.03,29.93,29.84,10,7,2,24,10,32,0.50,8,Rain,232
2014-2-2,36,32,27,33,26,20,96,84,72,30.26,30.18,30.00,10,8,3,17,10,23,0.41,8,Rain-Snow,351
2014-2-3,35,28,21,21,19,15,81,67,52,30.38,30.32,30.21,10,10,9,15,7,20,T,3,,357
2014-2-4,33,28,23,30,26,20,92,78,63,30.35,30.05,29.83,10,4,0,20,9,25,0.72,6,Fog-Rain-Snow,50
2014-2-5,32,26,20,30,22,15,100,87,74,30.51,30.13,29.80,10,6,1,18,11,25,0.01,8,Snow,303
2014-2-6,20,14,7,14,6,-3,80,70,59,30.60,30.54,30.48,10,8,3,15,8,19,T,6,Snow,318
2014-2-7,20,12,4,11,4,-4,79,64,49,30.58,30.49,30.39,10,10,10,7,3,10,0.00,1,,26
2014-2-8,31,24,17,28,20,9,92,80,67,30.38,30.26,30.16,10,6,1,9,5,11,0.03,8,Snow,109
2014-2-9,32,27,21,28,21,15,92,78,63,30.34,30.24,30.13,10,6,1,14,7,18,0.03,8,Snow,324
2014-2-10,21,14,7,15,4,-4,77,65,53,30.49,30.42,30.31,10,10,6,14,9,19,0.00,3,,349
2014-2-11,24,14,3,7,1,-6,70,60,49,30.55,30.48,30.39,10,10,10,12,4,14,0.00,0,,14
2014-2-12,37,24,10,19,12,4,76,62,47,30.37,30.17,30.01,10,10,9,9,5,13,0.00,0,,28
2014-2-13,41,29,17,24,18,11,81,60,37,29.99,29.88,29.75,10,10,6,14,4,18,0.00,0,,212
2014-2-14,37,28,19,32,26,12,92,82,71,30.03,29.75,29.62,10,5,0,23,7,33,0.19,7,Fog-Rain-Snow,2
2014-2-15,30,21,12,22,14,6,76,70,63,30.23,30.13,30.02,10,10,5,17,6,21,T,4,Snow,204
2014-2-16,35,29,23,26,21,17,88,77,66,30.30,30.18,30.01,10,8,6,15,6,19,0.00,4,,327
2014-2-17,43,34,25,39,31,19,92,81,69,30.25,29.96,29.76,10,7,1,26,10,35,0.34,5,Rain-Thunderstorm,201
2014-2-18,56,43,30,33,29,24,78,58,38,30.13,29.98,29.80,10,10,10,18,7,24,0.00,1,,193
2014-2-19,56,46,36,46,34,31,93,70,46,30.06,29.96,29.79,10,10,8,16,6,21,0.00,1,,286
2014-2-20,69,53,37,57,46,30,80,69,58,29.88,29.68,29.49,10,10,9,39,15,49,0.01,7,Rain-Thunderstorm,191
2014-2-21,51,43,35,29,23,16,76,51,26,30.00,29.94,29.81,10,10,10,26,13,33,0.00,0,,226
2014-2-22,63,47,31,34,27,24,72,48,23,30.09,30.01,29.92,10,10,10,17,7,24,0.00,0,,215
2014-2-23,43,35,27,32,26,16,82,65,47,30.32,30.17,30.02,10,10,2,21,10,26,T,4,Rain-Snow,8
2014-2-24,39,32,24,17,15,11,68,50,32,30.40,30.32,30.23,10,10,10,13,6,19,0.00,1,,352
2014-2-25,35,30,25,21,18,16,88,68,47,30.28,30.23,30.21,10,9,2,14,9,22,0.02,7,Snow,345
2014-2-26,26,20,14,17,6,2,73,55,37,30.32,30.20,30.01,10,9,3,21,9,28,T,3,Snow,315
2014-2-27,30,23,16,13,6,0,73,51,29,30.18,30.09,29.95,10,10,10,20,10,27,0.00,0,,321
2014-2-28,44,30,15,20,9,4,67,44,21,30.22,30.13,30.04,10,10,10,14,6,19,0.00,2,,97